sensor_id;sensor_type;location;lat;lon;timestamp;pressure;altitude;pressure_sealevel;temperature;humidity
13027;BME280;6580;42.680;23.324;2023-02-12T00:01:29;96264.72;;;2.65;42.66
13027;BME280;6580;42.680;23.324;2023-02-12T00:03:58;96268.13;;;2.51;42.84
13027;BME280;6580;42.680;23.324;2023-02-12T00:06:26;96264.53;;;2.37;43.45
13027;BME280;6580;42.680;23.324;2023-02-12T00:08:54;96245.56;;;2.32;43.08
13027;BME280;6580;42.680;23.324;2023-02-12T00:11:26;96264.53;;;2.37;43.02
13027;BME280;6580;42.680;23.324;2023-02-12T00:13:55;96253.53;;;2.30;43.68
13027;BME280;6580;42.680;23.324;2023-02-12T00:16:26;96270.31;;;2.28;44.69
13027;BME280;6580;42.680;23.324;2023-02-12T00:18:56;96271.69;;;2.35;43.59
13027;BME280;6580;42.680;23.324;2023-02-12T00:21:24;96269.72;;;2.23;43.48
13027;BME280;6580;42.680;23.324;2023-02-12T00:23:55;96284.19;;;2.14;44.08
13027;BME280;6580;42.680;23.324;2023-02-12T00:26:24;96263.28;;;2.28;43.42
13027;BME280;6580;42.680;23.324;2023-02-12T00:28:51;96279.28;;;2.24;43.91
13027;BME280;6580;42.680;23.324;2023-02-12T00:31:21;96259.13;;;2.09;43.91
13027;BME280;6580;42.680;23.324;2023-02-12T00:33:51;96239.69;;;2.11;43.83
13027;BME280;6580;42.680;23.324;2023-02-12T00:36:20;96237.69;;;2.32;43.44
13027;BME280;6580;42.680;23.324;2023-02-12T00:38:49;96254.03;;;2.37;43.35
13027;BME280;6580;42.680;23.324;2023-02-12T00:41:16;96238.97;;;2.40;43.62
13027;BME280;6580;42.680;23.324;2023-02-12T00:43:45;96238.28;;;2.68;42.26
13027;BME280;6580;42.680;23.324;2023-02-12T00:46:12;96234.22;;;2.47;43.09
13027;BME280;6580;42.680;23.324;2023-02-12T00:48:42;96235.03;;;2.47;43.31
13027;BME280;6580;42.680;23.324;2023-02-12T00:51:10;96234.69;;;2.38;43.05
13027;BME280;6580;42.680;23.324;2023-02-12T00:53:37;96225.03;;;2.23;43.61
13027;BME280;6580;42.680;23.324;2023-02-12T00:56:04;96218.59;;;2.28;43.32
13027;BME280;6580;42.680;23.324;2023-02-12T00:58:33;96224.72;;;2.29;43.98
13027;BME280;6580;42.680;23.324;2023-02-12T01:01:02;96212.66;;;2.56;43.24
13027;BME280;6580;42.680;23.324;2023-02-12T01:03:30;96202.66;;;2.47;43.17
13027;BME280;6580;42.680;23.324;2023-02-12T01:05:59;96208.69;;;2.49;43.31
13027;BME280;6580;42.680;23.324;2023-02-12T01:08:27;96216.63;;;2.63;42.67
13027;BME280;6580;42.680;23.324;2023-02-12T01:10:55;96217.91;;;2.56;43.86
13027;BME280;6580;42.680;23.324;2023-02-12T01:13:25;96215.47;;;2.37;43.74
13027;BME280;6580;42.680;23.324;2023-02-12T01:16:08;96222.50;;;2.37;43.84
13027;BME280;6580;42.680;23.324;2023-02-12T01:18:39;96229.53;;;2.36;43.82
13027;BME280;6580;42.680;23.324;2023-02-12T01:21:11;96216.41;;;2.36;43.38
13027;BME280;6580;42.680;23.324;2023-02-12T01:23:38;96213.69;;;2.22;44.15
13027;BME280;6580;42.680;23.324;2023-02-12T01:26:06;96228.03;;;2.48;43.82
13027;BME280;6580;42.680;23.324;2023-02-12T01:28:35;96230.66;;;2.48;44.30
13027;BME280;6580;42.680;23.324;2023-02-12T01:31:09;96232.94;;;2.38;43.77
13027;BME280;6580;42.680;23.324;2023-02-12T01:33:37;96240.41;;;2.61;44.31
13027;BME280;6580;42.680;23.324;2023-02-12T01:36:05;96223.53;;;2.50;43.62
13027;BME280;6580;42.680;23.324;2023-02-12T01:38:32;96228.09;;;2.46;44.15
13027;BME280;6580;42.680;23.324;2023-02-12T01:41:04;96206.22;;;2.30;44.07
13027;BME280;6580;42.680;23.324;2023-02-12T01:43:32;96216.75;;;2.46;44.29
13027;BME280;6580;42.680;23.324;2023-02-12T01:46:00;96210.06;;;2.40;44.91
13027;BME280;6580;42.680;23.324;2023-02-12T01:48:33;96215.31;;;2.25;45.12
13027;BME280;6580;42.680;23.324;2023-02-12T01:51:02;96207.59;;;2.22;45.44
13027;BME280;6580;42.680;23.324;2023-02-12T01:53:36;96197.19;;;2.36;44.87
13027;BME280;6580;42.680;23.324;2023-02-12T01:56:03;96210.72;;;2.44;45.17
13027;BME280;6580;42.680;23.324;2023-02-12T01:58:35;96202.84;;;2.28;44.94
13027;BME280;6580;42.680;23.324;2023-02-12T02:01:07;96206.00;;;2.35;44.96
13027;BME280;6580;42.680;23.324;2023-02-12T02:03:40;96199.78;;;2.20;45.11
13027;BME280;6580;42.680;23.324;2023-02-12T02:06:10;96207.94;;;2.16;45.37
13027;BME280;6580;42.680;23.324;2023-02-12T02:08:40;96191.97;;;2.19;45.34
13027;BME280;6580;42.680;23.324;2023-02-12T02:11:08;96192.34;;;2.13;45.54
13027;BME280;6580;42.680;23.324;2023-02-12T02:13:50;96192.81;;;2.04;45.54
13027;BME280;6580;42.680;23.324;2023-02-12T02:16:36;96186.03;;;1.85;46.57
13027;BME280;6580;42.680;23.324;2023-02-12T02:19:15;96195.09;;;1.79;47.10
13027;BME280;6580;42.680;23.324;2023-02-12T02:22:06;96210.88;;;1.79;47.70
13027;BME280;6580;42.680;23.324;2023-02-12T02:27:39;96203.41;;;1.87;47.29
13027;BME280;6580;42.680;23.324;2023-02-12T02:30:25;96206.28;;;1.83;47.94
13027;BME280;6580;42.680;23.324;2023-02-12T02:33:07;96196.03;;;1.78;47.88
13027;BME280;6580;42.680;23.324;2023-02-12T02:35:40;96195.94;;;1.80;48.01
13027;BME280;6580;42.680;23.324;2023-02-12T02:38:20;96200.06;;;1.68;48.26
13027;BME280;6580;42.680;23.324;2023-02-12T02:40:54;96197.50;;;1.51;48.94
13027;BME280;6580;42.680;23.324;2023-02-12T02:43:27;96201.03;;;1.50;49.30
13027;BME280;6580;42.680;23.324;2023-02-12T02:46:02;96199.13;;;1.54;49.22
13027;BME280;6580;42.680;23.324;2023-02-12T02:48:36;96205.97;;;1.56;49.79
13027;BME280;6580;42.680;23.324;2023-02-12T02:51:09;96203.09;;;1.45;50.11
13027;BME280;6580;42.680;23.324;2023-02-12T02:53:41;96211.69;;;1.47;50.18
13027;BME280;6580;42.680;23.324;2023-02-12T02:56:13;96192.25;;;1.51;50.29
13027;BME280;6580;42.680;23.324;2023-02-12T02:58:45;96216.84;;;1.66;49.69
13027;BME280;6580;42.680;23.324;2023-02-12T03:01:16;96212.09;;;1.72;50.07
13027;BME280;6580;42.680;23.324;2023-02-12T03:03:50;96213.97;;;1.70;49.22
13027;BME280;6580;42.680;23.324;2023-02-12T03:06:25;96213.56;;;1.78;49.85
13027;BME280;6580;42.680;23.324;2023-02-12T03:08:55;96221.69;;;1.73;50.07
13027;BME280;6580;42.680;23.324;2023-02-12T03:11:27;96209.38;;;1.74;50.27
13027;BME280;6580;42.680;23.324;2023-02-12T03:13:59;96217.19;;;1.75;51.55
13027;BME280;6580;42.680;23.324;2023-02-12T03:16:33;96212.88;;;1.74;50.29
13027;BME280;6580;42.680;23.324;2023-02-12T03:19:07;96204.22;;;1.72;50.34
13027;BME280;6580;42.680;23.324;2023-02-12T03:21:40;96210.00;;;1.63;50.73
13027;BME280;6580;42.680;23.324;2023-02-12T03:24:12;96210.81;;;1.64;50.51
13027;BME280;6580;42.680;23.324;2023-02-12T03:26:46;96184.72;;;1.45;51.10
13027;BME280;6580;42.680;23.324;2023-02-12T03:29:16;96191.56;;;1.48;50.96
13027;BME280;6580;42.680;23.324;2023-02-12T03:32:04;96202.13;;;1.63;50.93
13027;BME280;6580;42.680;23.324;2023-02-12T03:34:46;96195.31;;;1.59;51.53
13027;BME280;6580;42.680;23.324;2023-02-12T03:37:20;96202.50;;;1.56;51.86
13027;BME280;6580;42.680;23.324;2023-02-12T03:39:52;96205.13;;;1.56;51.75
13027;BME280;6580;42.680;23.324;2023-02-12T03:42:31;96198.34;;;1.52;51.74
13027;BME280;6580;42.680;23.324;2023-02-12T03:45:03;96198.75;;;1.44;52.39
13027;BME280;6580;42.680;23.324;2023-02-12T03:47:41;96200.69;;;1.73;51.50
13027;BME280;6580;42.680;23.324;2023-02-12T03:50:13;96204.84;;;1.77;51.15
13027;BME280;6580;42.680;23.324;2023-02-12T03:52:44;96199.50;;;1.79;51.58
13027;BME280;6580;42.680;23.324;2023-02-12T03:55:15;96207.13;;;1.83;51.07
13027;BME280;6580;42.680;23.324;2023-02-12T03:57:45;96205.97;;;1.89;51.46
13027;BME280;6580;42.680;23.324;2023-02-12T04:00:18;96198.44;;;1.98;51.30
13027;BME280;6580;42.680;23.324;2023-02-12T04:02:50;96199.72;;;2.06;50.92
13027;BME280;6580;42.680;23.324;2023-02-12T04:05:23;96182.41;;;1.87;51.06
13027;BME280;6580;42.680;23.324;2023-02-12T04:07:51;96204.47;;;2.00;50.38
13027;BME280;6580;42.680;23.324;2023-02-12T04:10:21;96181.16;;;1.94;50.66
13027;BME280;6580;42.680;23.324;2023-02-12T04:12:58;96192.91;;;1.87;50.80
13027;BME280;6580;42.680;23.324;2023-02-12T04:15:41;96201.88;;;1.83;50.97
13027;BME280;6580;42.680;23.324;2023-02-12T04:18:14;96193.41;;;1.78;51.22
13027;BME280;6580;42.680;23.324;2023-02-12T04:20:53;96211.63;;;1.81;51.21
13027;BME280;6580;42.680;23.324;2023-02-12T04:23:46;96211.69;;;1.80;51.22
13027;BME280;6580;42.680;23.324;2023-02-12T04:26:23;96215.94;;;1.82;52.34
13027;BME280;6580;42.680;23.324;2023-02-12T04:29:03;96207.56;;;1.91;51.28
13027;BME280;6580;42.680;23.324;2023-02-12T04:31:48;96212.38;;;1.83;51.40
13027;BME280;6580;42.680;23.324;2023-02-12T04:34:33;96210.19;;;1.91;51.73
13027;BME280;6580;42.680;23.324;2023-02-12T04:37:04;96215.91;;;1.99;51.24
13027;BME280;6580;42.680;23.324;2023-02-12T04:39:39;96214.19;;;1.98;51.19
13027;BME280;6580;42.680;23.324;2023-02-12T04:42:06;96218.75;;;1.95;51.13
13027;BME280;6580;42.680;23.324;2023-02-12T04:44:37;96217.06;;;1.94;51.34
13027;BME280;6580;42.680;23.324;2023-02-12T04:47:05;96219.59;;;1.95;51.29
13027;BME280;6580;42.680;23.324;2023-02-12T04:49:33;96223.78;;;1.99;51.36
13027;BME280;6580;42.680;23.324;2023-02-12T04:52:00;96233.34;;;2.00;51.33
13027;BME280;6580;42.680;23.324;2023-02-12T04:54:27;96226.91;;;2.05;52.36
13027;BME280;6580;42.680;23.324;2023-02-12T04:56:54;96225.31;;;2.18;51.81
13027;BME280;6580;42.680;23.324;2023-02-12T04:59:23;96232.50;;;2.15;52.62
13027;BME280;6580;42.680;23.324;2023-02-12T05:01:51;96222.09;;;2.29;51.69
13027;BME280;6580;42.680;23.324;2023-02-12T05:04:18;96221.50;;;2.39;51.58
13027;BME280;6580;42.680;23.324;2023-02-12T05:06:47;96224.81;;;2.27;51.25
13027;BME280;6580;42.680;23.324;2023-02-12T05:09:15;96222.06;;;2.13;51.94
13027;BME280;6580;42.680;23.324;2023-02-12T05:11:42;96223.00;;;1.97;51.64
13027;BME280;6580;42.680;23.324;2023-02-12T05:14:10;96242.25;;;2.13;51.87
13027;BME280;6580;42.680;23.324;2023-02-12T05:16:37;96234.78;;;2.05;52.53
13027;BME280;6580;42.680;23.324;2023-02-12T05:19:07;96243.59;;;2.20;52.26
13027;BME280;6580;42.680;23.324;2023-02-12T05:21:34;96250.13;;;2.28;51.61
13027;BME280;6580;42.680;23.324;2023-02-12T05:24:03;96235.91;;;2.32;52.38
13027;BME280;6580;42.680;23.324;2023-02-12T05:26:31;96254.03;;;2.37;52.34
13027;BME280;6580;42.680;23.324;2023-02-12T05:28:58;96245.66;;;2.46;52.31
13027;BME280;6580;42.680;23.324;2023-02-12T05:31:26;96258.38;;;2.53;51.48
13027;BME280;6580;42.680;23.324;2023-02-12T05:33:57;96251.41;;;2.68;50.95
13027;BME280;6580;42.680;23.324;2023-02-12T05:36:26;96256.94;;;2.63;50.95
13027;BME280;6580;42.680;23.324;2023-02-12T05:38:57;96263.19;;;2.61;51.75
13027;BME280;6580;42.680;23.324;2023-02-12T05:41:27;96264.31;;;2.72;52.23
13027;BME280;6580;42.680;23.324;2023-02-12T05:43:59;96258.63;;;2.49;52.31
13027;BME280;6580;42.680;23.324;2023-02-12T05:46:27;96262.13;;;2.34;54.25
13027;BME280;6580;42.680;23.324;2023-02-12T05:48:54;96268.31;;;2.33;55.51
13027;BME280;6580;42.680;23.324;2023-02-12T05:51:25;96279.22;;;2.41;56.43
13027;BME280;6580;42.680;23.324;2023-02-12T05:53:56;96277.19;;;2.46;57.09
13027;BME280;6580;42.680;23.324;2023-02-12T05:56:30;96285.25;;;2.43;58.64
13027;BME280;6580;42.680;23.324;2023-02-12T05:59:00;96270.81;;;2.19;59.84
13027;BME280;6580;42.680;23.324;2023-02-12T06:01:32;96285.78;;;2.34;61.11
13027;BME280;6580;42.680;23.324;2023-02-12T06:04:02;96276.41;;;2.13;61.07
13027;BME280;6580;42.680;23.324;2023-02-12T06:06:30;96290.16;;;2.18;61.19
13027;BME280;6580;42.680;23.324;2023-02-12T06:08:59;96278.81;;;2.33;61.21
13027;BME280;6580;42.680;23.324;2023-02-12T06:11:29;96282.53;;;2.29;61.57
13027;BME280;6580;42.680;23.324;2023-02-12T06:14:01;96265.06;;;2.28;62.87
13027;BME280;6580;42.680;23.324;2023-02-12T06:16:27;96264.06;;;2.46;63.13
13027;BME280;6580;42.680;23.324;2023-02-12T06:18:55;96282.72;;;2.72;63.31
13027;BME280;6580;42.680;23.324;2023-02-12T06:21:24;96291.13;;;2.63;64.14
13027;BME280;6580;42.680;23.324;2023-02-12T06:23:51;96286.59;;;2.65;64.71
13027;BME280;6580;42.680;23.324;2023-02-12T06:26:22;96280.00;;;2.43;67.52
13027;BME280;6580;42.680;23.324;2023-02-12T06:28:51;96284.56;;;2.70;67.95
13027;BME280;6580;42.680;23.324;2023-02-12T06:31:22;96279.00;;;2.45;70.04
13027;BME280;6580;42.680;23.324;2023-02-12T06:33:50;96283.72;;;2.23;73.79
13027;BME280;6580;42.680;23.324;2023-02-12T06:36:21;96294.44;;;2.36;75.41
13027;BME280;6580;42.680;23.324;2023-02-12T06:38:49;96300.69;;;2.33;78.04
13027;BME280;6580;42.680;23.324;2023-02-12T06:41:17;96294.25;;;2.54;78.77
13027;BME280;6580;42.680;23.324;2023-02-12T06:43:45;96302.56;;;2.47;78.76
13027;BME280;6580;42.680;23.324;2023-02-12T06:46:18;96304.09;;;2.66;79.96
13027;BME280;6580;42.680;23.324;2023-02-12T06:48:45;96279.22;;;2.41;79.09
13027;BME280;6580;42.680;23.324;2023-02-12T06:51:15;96295.94;;;2.40;80.45
13027;BME280;6580;42.680;23.324;2023-02-12T06:53:46;96306.78;;;2.49;80.25
13027;BME280;6580;42.680;23.324;2023-02-12T06:56:16;96299.41;;;2.56;80.77
13027;BME280;6580;42.680;23.324;2023-02-12T06:58:45;96296.44;;;2.62;80.42
13027;BME280;6580;42.680;23.324;2023-02-12T07:01:13;96305.44;;;2.73;79.86
13027;BME280;6580;42.680;23.324;2023-02-12T07:03:47;96308.69;;;2.78;79.88
13027;BME280;6580;42.680;23.324;2023-02-12T07:06:18;96309.34;;;2.82;79.76
13027;BME280;6580;42.680;23.324;2023-02-12T07:08:45;96301.72;;;2.77;79.57
13027;BME280;6580;42.680;23.324;2023-02-12T07:11:12;96309.88;;;2.73;79.73
13027;BME280;6580;42.680;23.324;2023-02-12T07:13:39;96302.06;;;2.71;80.14
13027;BME280;6580;42.680;23.324;2023-02-12T07:16:09;96293.75;;;2.63;79.36
13027;BME280;6580;42.680;23.324;2023-02-12T07:18:41;96305.44;;;2.73;78.63
13027;BME280;6580;42.680;23.324;2023-02-12T07:21:14;96313.75;;;2.66;79.76
13027;BME280;6580;42.680;23.324;2023-02-12T07:23:44;96310.53;;;2.61;79.59
13027;BME280;6580;42.680;23.324;2023-02-12T07:26:17;96304.94;;;2.51;79.96
13027;BME280;6580;42.680;23.324;2023-02-12T07:28:46;96304.75;;;2.39;80.38
13027;BME280;6580;42.680;23.324;2023-02-12T07:31:16;96302.91;;;2.56;80.62
13027;BME280;6580;42.680;23.324;2023-02-12T07:33:43;96317.66;;;2.59;80.13
13027;BME280;6580;42.680;23.324;2023-02-12T07:36:16;96318.34;;;2.47;81.87
13027;BME280;6580;42.680;23.324;2023-02-12T07:38:45;96305.63;;;2.55;80.24
13027;BME280;6580;42.680;23.324;2023-02-12T07:41:13;96323.69;;;2.45;81.04
13027;BME280;6580;42.680;23.324;2023-02-12T07:43:41;96332.06;;;2.36;82.86
13027;BME280;6580;42.680;23.324;2023-02-12T07:46:10;96336.13;;;2.42;83.07
13027;BME280;6580;42.680;23.324;2023-02-12T07:48:41;96332.00;;;2.53;83.22
13027;BME280;6580;42.680;23.324;2023-02-12T07:51:10;96328.16;;;2.59;81.40
13027;BME280;6580;42.680;23.324;2023-02-12T07:53:38;96316.38;;;2.50;82.82
13027;BME280;6580;42.680;23.324;2023-02-12T07:56:12;96326.47;;;2.58;82.83
13027;BME280;6580;42.680;23.324;2023-02-12T07:58:40;96333.59;;;2.56;82.89
13027;BME280;6580;42.680;23.324;2023-02-12T08:01:17;96325.03;;;2.52;83.08
13027;BME280;6580;42.680;23.324;2023-02-12T08:03:47;96317.88;;;2.39;83.90
13027;BME280;6580;42.680;23.324;2023-02-12T08:06:16;96335.13;;;2.60;83.71
13027;BME280;6580;42.680;23.324;2023-02-12T08:08:44;96329.69;;;2.47;84.37
13027;BME280;6580;42.680;23.324;2023-02-12T08:11:13;96331.06;;;2.54;85.19
13027;BME280;6580;42.680;23.324;2023-02-12T08:13:41;96324.25;;;2.50;84.06
13027;BME280;6580;42.680;23.324;2023-02-12T08:16:11;96323.19;;;2.70;84.32
13027;BME280;6580;42.680;23.324;2023-02-12T08:18:40;96339.38;;;2.62;83.17
13027;BME280;6580;42.680;23.324;2023-02-12T08:21:11;96326.59;;;2.72;83.66
13027;BME280;6580;42.680;23.324;2023-02-12T08:23:38;96332.69;;;2.88;82.00
13027;BME280;6580;42.680;23.324;2023-02-12T08:26:10;96338.88;;;2.71;82.72
13027;BME280;6580;42.680;23.324;2023-02-12T08:28:40;96335.06;;;2.61;83.64
13027;BME280;6580;42.680;23.324;2023-02-12T08:31:09;96334.47;;;2.72;83.64
13027;BME280;6580;42.680;23.324;2023-02-12T08:33:37;96348.69;;;2.83;83.73
13027;BME280;6580;42.680;23.324;2023-02-12T08:36:09;96343.88;;;2.76;84.25
13027;BME280;6580;42.680;23.324;2023-02-12T08:38:36;96350.25;;;3.02;83.15
13027;BME280;6580;42.680;23.324;2023-02-12T08:41:06;96358.03;;;2.73;84.54
13027;BME280;6580;42.680;23.324;2023-02-12T08:43:39;96356.78;;;2.96;83.52
13027;BME280;6580;42.680;23.324;2023-02-12T08:46:07;96344.31;;;2.99;82.30
13027;BME280;6580;42.680;23.324;2023-02-12T08:48:36;96361.28;;;3.24;81.65
13027;BME280;6580;42.680;23.324;2023-02-12T08:51:07;96352.94;;;3.32;79.70
13027;BME280;6580;42.680;23.324;2023-02-12T08:53:35;96365.69;;;3.08;81.00
13027;BME280;6580;42.680;23.324;2023-02-12T08:56:03;96380.22;;;3.00;82.23
13027;BME280;6580;42.680;23.324;2023-02-12T08:58:30;96362.97;;;3.10;80.82
13027;BME280;6580;42.680;23.324;2023-02-12T09:00:59;96369.06;;;3.26;81.32
13027;BME280;6580;42.680;23.324;2023-02-12T09:03:26;96380.41;;;3.42;81.11
13027;BME280;6580;42.680;23.324;2023-02-12T09:05:53;96377.91;;;3.25;81.64
13027;BME280;6580;42.680;23.324;2023-02-12T09:08:19;96383.75;;;3.30;82.54
13027;BME280;6580;42.680;23.324;2023-02-12T09:10:46;96383.69;;;3.16;84.18
13027;BME280;6580;42.680;23.324;2023-02-12T09:13:13;96384.19;;;3.22;84.27
13027;BME280;6580;42.680;23.324;2023-02-12T09:15:42;96387.22;;;3.30;83.92
13027;BME280;6580;42.680;23.324;2023-02-12T09:18:12;96394.56;;;3.25;86.21
13027;BME280;6580;42.680;23.324;2023-02-12T09:20:42;96388.91;;;3.31;85.92
13027;BME280;6580;42.680;23.324;2023-02-12T09:23:11;96389.34;;;3.39;85.06
13027;BME280;6580;42.680;23.324;2023-02-12T09:25:39;96390.00;;;3.58;85.04
13027;BME280;6580;42.680;23.324;2023-02-12T09:28:06;96388.03;;;3.62;83.11
13027;BME280;6580;42.680;23.324;2023-02-12T09:30:36;96389.00;;;3.75;83.59
13027;BME280;6580;42.680;23.324;2023-02-12T09:33:06;96395.72;;;3.80;80.75
13027;BME280;6580;42.680;23.324;2023-02-12T09:35:35;96381.19;;;3.73;82.76
13027;BME280;6580;42.680;23.324;2023-02-12T09:38:04;96398.38;;;3.80;81.47
13027;BME280;6580;42.680;23.324;2023-02-12T09:40:35;96381.63;;;3.81;81.35
13027;BME280;6580;42.680;23.324;2023-02-12T09:43:12;96381.94;;;3.46;81.42
13027;BME280;6580;42.680;23.324;2023-02-12T09:45:49;96399.06;;;3.23;83.21
13027;BME280;6580;42.680;23.324;2023-02-12T09:48:40;96392.31;;;3.33;83.30
13027;BME280;6580;42.680;23.324;2023-02-12T09:51:10;96404.88;;;3.44;83.47
13027;BME280;6580;42.680;23.324;2023-02-12T09:53:40;96409.72;;;3.51;82.86
13027;BME280;6580;42.680;23.324;2023-02-12T09:56:17;96408.75;;;3.68;81.82
13027;BME280;6580;42.680;23.324;2023-02-12T09:58:47;96416.22;;;3.75;80.38
13027;BME280;6580;42.680;23.324;2023-02-12T10:01:17;96415.50;;;3.87;80.16
13027;BME280;6580;42.680;23.324;2023-02-12T10:03:45;96406.31;;;3.94;79.29
13027;BME280;6580;42.680;23.324;2023-02-12T10:06:20;96408.00;;;4.38;77.94
13027;BME280;6580;42.680;23.324;2023-02-12T10:11:57;96389.25;;;4.57;76.64
13027;BME280;6580;42.680;23.324;2023-02-12T10:14:49;96412.16;;;4.56;75.53
13027;BME280;6580;42.680;23.324;2023-02-12T10:17:23;96407.34;;;4.91;73.93
13027;BME280;6580;42.680;23.324;2023-02-12T10:22:58;96392.44;;;5.44;72.21
13027;BME280;6580;42.680;23.324;2023-02-12T10:25:39;96395.88;;;5.58;68.92
13027;BME280;6580;42.680;23.324;2023-02-12T10:28:12;96397.09;;;5.93;67.62
13027;BME280;6580;42.680;23.324;2023-02-12T10:30:44;96397.31;;;5.50;66.86
13027;BME280;6580;42.680;23.324;2023-02-12T10:33:16;96398.69;;;5.29;67.94
13027;BME280;6580;42.680;23.324;2023-02-12T10:35:48;96393.47;;;4.87;70.86
13027;BME280;6580;42.680;23.324;2023-02-12T10:38:20;96407.13;;;5.21;70.04
13027;BME280;6580;42.680;23.324;2023-02-12T10:40:48;96397.13;;;5.12;70.21
13027;BME280;6580;42.680;23.324;2023-02-12T10:43:16;96392.19;;;5.34;68.43
13027;BME280;6580;42.680;23.324;2023-02-12T10:45:43;96400.66;;;4.85;70.80
13027;BME280;6580;42.680;23.324;2023-02-12T10:48:14;96406.59;;;4.75;71.75
13027;BME280;6580;42.680;23.324;2023-02-12T10:50:54;96395.75;;;4.93;72.46
13027;BME280;6580;42.680;23.324;2023-02-12T10:53:34;96395.19;;;5.42;69.89
13027;BME280;6580;42.680;23.324;2023-02-12T10:56:11;96396.75;;;5.71;67.46
13027;BME280;6580;42.680;23.324;2023-02-12T10:58:50;96390.09;;;5.92;66.39
13027;BME280;6580;42.680;23.324;2023-02-12T11:01:22;96394.94;;;5.86;65.21
13027;BME280;6580;42.680;23.324;2023-02-12T11:03:51;96409.34;;;5.68;66.80
13027;BME280;6580;42.680;23.324;2023-02-12T11:06:21;96394.50;;;5.65;66.80
13027;BME280;6580;42.680;23.324;2023-02-12T11:08:49;96396.88;;;5.70;66.57
13027;BME280;6580;42.680;23.324;2023-02-12T11:11:19;96399.66;;;5.54;65.64
13027;BME280;6580;42.680;23.324;2023-02-12T11:13:54;96387.84;;;5.33;67.00
13027;BME280;6580;42.680;23.324;2023-02-12T11:16:27;96400.16;;;5.47;67.55
13027;BME280;6580;42.680;23.324;2023-02-12T11:19:02;96388.41;;;5.65;66.80
13027;BME280;6580;42.680;23.324;2023-02-12T11:21:32;96398.84;;;5.80;67.46
13027;BME280;6580;42.680;23.324;2023-02-12T11:24:26;96402.53;;;6.16;65.74
13027;BME280;6580;42.680;23.324;2023-02-12T11:27:10;96398.22;;;6.28;64.67
13027;BME280;6580;42.680;23.324;2023-02-12T11:29:38;96391.97;;;6.29;64.05
13027;BME280;6580;42.680;23.324;2023-02-12T11:32:06;96392.41;;;6.35;63.68
13027;BME280;6580;42.680;23.324;2023-02-12T11:34:34;96392.91;;;6.28;63.61
13027;BME280;6580;42.680;23.324;2023-02-12T11:37:03;96398.34;;;6.51;63.31
13027;BME280;6580;42.680;23.324;2023-02-12T11:39:45;96386.66;;;6.16;63.77
13027;BME280;6580;42.680;23.324;2023-02-12T11:42:16;96392.41;;;6.48;62.77
13027;BME280;6580;42.680;23.324;2023-02-12T11:44:48;96385.75;;;6.55;62.92
13027;BME280;6580;42.680;23.324;2023-02-12T11:47:18;96388.28;;;6.69;61.76
13027;BME280;6580;42.680;23.324;2023-02-12T11:49:49;96387.00;;;6.87;60.53
13027;BME280;6580;42.680;23.324;2023-02-12T11:52:22;96378.13;;;6.63;61.09
13027;BME280;6580;42.680;23.324;2023-02-12T11:54:55;96388.91;;;6.85;61.16
13027;BME280;6580;42.680;23.324;2023-02-12T11:57:36;96379.47;;;6.81;59.96
13027;BME280;6580;42.680;23.324;2023-02-12T12:00:15;96378.88;;;6.65;60.92
13027;BME280;6580;42.680;23.324;2023-02-12T12:02:48;96382.66;;;6.86;59.93
13027;BME280;6580;42.680;23.324;2023-02-12T12:05:21;96373.03;;;6.47;61.43
13027;BME280;6580;42.680;23.324;2023-02-12T12:07:58;96387.72;;;6.39;62.06
13027;BME280;6580;42.680;23.324;2023-02-12T12:10:33;96388.09;;;6.72;62.05
13027;BME280;6580;42.680;23.324;2023-02-12T12:13:04;96394.00;;;6.63;61.43
13027;BME280;6580;42.680;23.324;2023-02-12T12:15:38;96393.16;;;6.50;61.31
13027;BME280;6580;42.680;23.324;2023-02-12T12:18:30;96391.06;;;6.55;62.79
13027;BME280;6580;42.680;23.324;2023-02-12T12:21:22;96376.00;;;6.80;61.26
13027;BME280;6580;42.680;23.324;2023-02-12T12:23:54;96372.56;;;7.03;59.88
13027;BME280;6580;42.680;23.324;2023-02-12T12:26:26;96394.00;;;7.00;59.55
13027;BME280;6580;42.680;23.324;2023-02-12T12:28:58;96378.09;;;6.88;59.80
13027;BME280;6580;42.680;23.324;2023-02-12T12:31:30;96396.03;;;6.59;60.53
13027;BME280;6580;42.680;23.324;2023-02-12T12:34:05;96403.22;;;6.70;60.82
13027;BME280;6580;42.680;23.324;2023-02-12T12:39:35;96398.88;;;6.69;59.82
13027;BME280;6580;42.680;23.324;2023-02-12T12:42:50;96399.50;;;6.35;60.35
13027;BME280;6580;42.680;23.324;2023-02-12T12:45:33;96401.91;;;5.60;63.77
13027;BME280;6580;42.680;23.324;2023-02-12T12:48:15;96408.47;;;5.81;64.58
13027;BME280;6580;42.680;23.324;2023-02-12T12:51:00;96408.34;;;6.09;64.60
13027;BME280;6580;42.680;23.324;2023-02-12T12:53:45;96408.72;;;6.03;63.88
13027;BME280;6580;42.680;23.324;2023-02-12T12:56:34;96414.47;;;6.09;63.30
13027;BME280;6580;42.680;23.324;2023-02-12T12:59:36;96415.22;;;6.24;63.72
13027;BME280;6580;42.680;23.324;2023-02-12T13:05:50;96414.03;;;6.67;62.25
13027;BME280;6580;42.680;23.324;2023-02-12T13:08:31;96421.81;;;6.56;62.16
13027;BME280;6580;42.680;23.324;2023-02-12T13:11:05;96428.50;;;6.49;62.34
13027;BME280;6580;42.680;23.324;2023-02-12T13:13:41;96421.28;;;6.26;63.69
13027;BME280;6580;42.680;23.324;2023-02-12T13:16:25;96425.25;;;6.19;64.01
13027;BME280;6580;42.680;23.324;2023-02-12T13:19:00;96420.72;;;6.21;64.24
13027;BME280;6580;42.680;23.324;2023-02-12T13:21:36;96425.41;;;6.30;63.53
13027;BME280;6580;42.680;23.324;2023-02-12T13:24:12;96439.03;;;6.24;63.32
13027;BME280;6580;42.680;23.324;2023-02-12T13:26:45;96417.34;;;6.19;63.99
13027;BME280;6580;42.680;23.324;2023-02-12T13:29:17;96433.91;;;6.35;63.82
13027;BME280;6580;42.680;23.324;2023-02-12T13:31:50;96438.38;;;6.08;65.21
13027;BME280;6580;42.680;23.324;2023-02-12T13:34:19;96433.81;;;5.57;66.47
13027;BME280;6580;42.680;23.324;2023-02-12T13:36:48;96424.63;;;5.63;66.86
13027;BME280;6580;42.680;23.324;2023-02-12T13:39:25;96429.41;;;5.84;66.02
13027;BME280;6580;42.680;23.324;2023-02-12T13:42:02;96423.66;;;6.04;65.77
13027;BME280;6580;42.680;23.324;2023-02-12T13:44:37;96437.69;;;6.31;65.35
13027;BME280;6580;42.680;23.324;2023-02-12T13:47:16;96442.16;;;6.43;64.75
13027;BME280;6580;42.680;23.324;2023-02-12T13:49:51;96440.31;;;6.18;64.86
13027;BME280;6580;42.680;23.324;2023-02-12T13:52:27;96454.31;;;5.94;65.39